createdAt,value
2023-02-19T00:01:15.882Z,83.95
2023-02-19T00:03:43.776Z,84.12
2023-02-19T00:06:11.337Z,84.15
2023-02-19T00:08:38.556Z,84.53
2023-02-19T00:11:11.987Z,84.66
2023-02-19T00:13:40.300Z,85.11
2023-02-19T00:16:08.704Z,84.83
2023-02-19T00:18:35.967Z,84.51
2023-02-19T00:21:03.282Z,84.65
2023-02-19T00:23:30.342Z,85.00
2023-02-19T00:26:00.980Z,84.62
2023-02-19T00:28:29.721Z,84.88
2023-02-19T00:30:56.199Z,84.75
2023-02-19T00:33:23.301Z,84.26
2023-02-19T00:35:49.714Z,84.85
2023-02-19T00:38:16.172Z,84.68
2023-02-19T00:40:42.579Z,84.78
2023-02-19T00:43:09.043Z,85.09
2023-02-19T00:45:35.684Z,85.03
2023-02-19T00:48:02.105Z,84.92
2023-02-19T00:50:28.622Z,84.72
2023-02-19T00:52:55.074Z,84.68
2023-02-19T00:55:21.496Z,84.65
2023-02-19T00:57:48.015Z,85.04
2023-02-19T01:00:14.626Z,85.43
2023-02-19T01:02:41.192Z,85.03
2023-02-19T01:05:07.953Z,84.89
2023-02-19T01:07:37.070Z,85.29
2023-02-19T01:10:04.929Z,85.44
2023-02-19T01:12:32.241Z,85.10
2023-02-19T01:14:58.758Z,84.83
2023-02-19T01:17:25.327Z,85.01
2023-02-19T01:19:52.022Z,84.99
2023-02-19T01:22:18.462Z,85.08
2023-02-19T01:24:44.820Z,84.85
2023-02-19T01:27:11.258Z,84.79
2023-02-19T01:29:37.702Z,84.59
2023-02-19T01:32:04.267Z,84.70
2023-02-19T01:34:33.281Z,85.12
2023-02-19T01:37:00.003Z,85.00
2023-02-19T01:39:26.451Z,85.26
2023-02-19T01:41:52.909Z,85.02
2023-02-19T01:44:22.300Z,85.08
2023-02-19T01:46:51.375Z,84.78
2023-02-19T01:49:31.805Z,84.79
2023-02-19T01:52:14.280Z,84.85
2023-02-19T01:54:44.076Z,84.70
2023-02-19T01:57:18.973Z,84.78
2023-02-19T01:59:50.625Z,85.09
2023-02-19T02:02:17.596Z,85.19
2023-02-19T02:04:44.191Z,84.84
2023-02-19T02:07:29.657Z,85.15
2023-02-19T02:10:15.351Z,85.76
2023-02-19T02:12:41.881Z,85.62
2023-02-19T02:15:09.090Z,85.58
2023-02-19T02:18:02.557Z,85.79
2023-02-19T02:20:28.961Z,85.20
2023-02-19T02:23:03.681Z,85.54
2023-02-19T02:25:41.005Z,85.38
2023-02-19T02:28:16.534Z,85.71
2023-02-19T02:30:48.868Z,85.67
2023-02-19T02:33:19.495Z,85.33
2023-02-19T02:35:52.911Z,85.19
2023-02-19T02:38:24.275Z,85.04
2023-02-19T02:40:52.675Z,84.89
2023-02-19T02:43:19.332Z,84.98
2023-02-19T02:45:45.896Z,84.79
2023-02-19T02:48:43.467Z,84.24
2023-02-19T02:51:14.167Z,84.65
2023-02-19T02:54:11.619Z,85.04
2023-02-19T02:56:41.650Z,85.11
2023-02-19T02:59:11.209Z,84.99
2023-02-19T03:02:11.280Z,85.27
2023-02-19T03:05:16.733Z,84.91
2023-02-19T03:07:52.820Z,85.14
2023-02-19T03:10:25.318Z,84.97
2023-02-19T03:13:15.127Z,85.11
2023-02-19T03:16:06.164Z,84.69
2023-02-19T03:18:55.456Z,85.32
2023-02-19T03:21:23.950Z,84.79
2023-02-19T03:24:10.219Z,84.90
2023-02-19T03:26:40.915Z,85.40
2023-02-19T03:29:23.253Z,84.93
2023-02-19T03:31:58.034Z,85.35
2023-02-19T03:34:37.101Z,85.55
2023-02-19T03:37:11.539Z,85.25
2023-02-19T03:39:44.405Z,85.48
2023-02-19T03:42:25.650Z,85.33
2023-02-19T03:45:21.512Z,85.38
2023-02-19T03:48:04.832Z,85.60
2023-02-19T03:50:49.963Z,85.43
2023-02-19T03:53:38.368Z,86.16
2023-02-19T03:56:16.396Z,86.09
2023-02-19T03:58:58.902Z,85.83
2023-02-19T04:01:34.116Z,86.25
2023-02-19T04:04:15.648Z,86.31
2023-02-19T04:06:46.614Z,85.91
2023-02-19T04:09:16.131Z,86.54
2023-02-19T04:11:49.865Z,86.51
2023-02-19T04:14:21.036Z,86.32
2023-02-19T04:16:53.123Z,86.01
2023-02-19T04:19:21.963Z,86.33
2023-02-19T04:21:53.333Z,86.67
2023-02-19T04:24:26.503Z,86.61
2023-02-19T04:26:53.880Z,86.46
2023-02-19T04:29:20.525Z,86.63
2023-02-19T04:31:47.176Z,86.69
2023-02-19T04:34:13.562Z,86.54
2023-02-19T04:36:39.938Z,86.45
2023-02-19T04:39:08.150Z,86.12
2023-02-19T04:41:34.616Z,86.56
2023-02-19T04:44:01.039Z,86.60
2023-02-19T04:46:27.481Z,85.83
2023-02-19T04:48:53.939Z,86.54
2023-02-19T04:51:20.415Z,86.78
2023-02-19T04:53:46.903Z,86.02
2023-02-19T04:56:15.432Z,86.90
2023-02-19T04:58:42.858Z,86.49
2023-02-19T05:01:10.278Z,87.23
2023-02-19T05:03:37.356Z,86.83
2023-02-19T05:06:09.628Z,86.62
2023-02-19T05:08:36.941Z,86.92
2023-02-19T05:11:05.801Z,87.15
2023-02-19T05:13:33.150Z,86.51
2023-02-19T05:16:01.902Z,86.56
2023-02-19T05:18:29.681Z,86.64
2023-02-19T05:20:57.699Z,86.78
2023-02-19T05:23:24.887Z,87.01
2023-02-19T05:25:51.476Z,86.53
2023-02-19T05:28:18.145Z,86.33
2023-02-19T05:30:49.556Z,86.35
2023-02-19T05:33:17.435Z,86.46
2023-02-19T05:35:48.955Z,86.77
2023-02-19T05:38:16.406Z,86.58
2023-02-19T05:40:43.801Z,86.12
2023-02-19T05:43:11.238Z,85.98
2023-02-19T05:45:37.815Z,86.67
2023-02-19T05:48:05.228Z,86.77
2023-02-19T05:50:33.258Z,86.53
2023-02-19T05:53:11.260Z,86.42
2023-02-19T05:55:37.712Z,86.75
2023-02-19T05:58:04.566Z,86.37
2023-02-19T06:00:33.133Z,85.95
2023-02-19T06:03:00.026Z,86.29
2023-02-19T06:05:26.587Z,86.19
2023-02-19T06:07:53.062Z,86.28
2023-02-19T06:10:19.524Z,86.02
2023-02-19T06:12:46.296Z,86.50
2023-02-19T06:15:12.771Z,86.45
2023-02-19T06:17:39.522Z,86.33
2023-02-19T06:20:06.418Z,85.93
2023-02-19T06:22:32.833Z,86.37
2023-02-19T06:24:59.209Z,86.42
2023-02-19T06:27:25.675Z,85.73
2023-02-19T06:29:52.051Z,85.58
2023-02-19T06:32:18.749Z,85.95
2023-02-19T06:34:45.229Z,85.31
2023-02-19T06:37:11.630Z,85.62
2023-02-19T06:39:38.280Z,85.91
2023-02-19T06:42:04.773Z,85.38
2023-02-19T06:44:31.146Z,85.53
2023-02-19T06:46:57.565Z,85.19
2023-02-19T06:49:23.960Z,85.51
2023-02-19T06:51:50.456Z,85.14
2023-02-19T06:54:16.858Z,84.54
2023-02-19T06:56:46.097Z,85.20
2023-02-19T06:59:16.813Z,85.32
2023-02-19T07:01:44.587Z,85.37
2023-02-19T07:04:11.458Z,85.52
2023-02-19T07:06:38.285Z,85.28
2023-02-19T07:09:06.831Z,85.16
2023-02-19T07:11:35.568Z,85.13
2023-02-19T07:14:04.142Z,84.97
2023-02-19T07:16:30.764Z,84.66
2023-02-19T07:18:58.396Z,84.92
2023-02-19T07:21:25.150Z,85.25
2023-02-19T07:23:52.353Z,84.96
2023-02-19T07:26:19.913Z,85.04
2023-02-19T07:28:51.200Z,85.04
2023-02-19T07:31:19.646Z,85.51
2023-02-19T07:33:47.030Z,85.62
2023-02-19T07:36:15.175Z,85.35
2023-02-19T07:38:41.552Z,85.29
2023-02-19T07:41:08.509Z,85.76
2023-02-19T07:43:37.049Z,85.39
2023-02-19T07:46:12.979Z,85.74
2023-02-19T07:48:41.365Z,85.90
2023-02-19T07:51:10.954Z,85.92
2023-02-19T07:53:37.545Z,85.62
2023-02-19T07:56:07.162Z,85.58
2023-02-19T07:58:34.834Z,84.88
2023-02-19T08:01:14.434Z,85.61
2023-02-19T08:03:41.487Z,86.34
2023-02-19T08:06:08.459Z,85.94
2023-02-19T08:08:34.836Z,86.28
2023-02-19T08:11:21.323Z,86.32
2023-02-19T08:13:52.677Z,85.98
2023-02-19T08:16:29.604Z,86.08
2023-02-19T08:19:00.009Z,85.96
2023-02-19T08:21:26.748Z,85.81
2023-02-19T08:23:53.158Z,85.86
2023-02-19T08:26:19.548Z,85.21
2023-02-19T08:28:46.008Z,85.45
2023-02-19T08:31:13.323Z,85.40
2023-02-19T08:33:40.239Z,86.02
2023-02-19T08:36:08.600Z,85.94
2023-02-19T08:38:36.609Z,86.01
2023-02-19T08:41:08.871Z,85.84
2023-02-19T08:43:35.999Z,85.34
2023-02-19T08:46:02.503Z,85.51
2023-02-19T08:48:29.219Z,84.90
2023-02-19T08:50:57.417Z,84.96
2023-02-19T08:53:24.789Z,85.59
2023-02-19T08:55:52.239Z,85.43
2023-02-19T08:58:18.756Z,85.67
2023-02-19T09:00:45.295Z,84.67
2023-02-19T09:03:11.715Z,85.44
2023-02-19T09:05:39.169Z,85.39
2023-02-19T09:08:05.603Z,84.54
2023-02-19T09:10:32.131Z,84.99
2023-02-19T09:12:58.484Z,85.23
2023-02-19T09:15:24.952Z,85.48
2023-02-19T09:17:54.046Z,84.80
2023-02-19T09:20:20.476Z,84.77
2023-02-19T09:22:46.894Z,85.50
2023-02-19T09:25:13.357Z,87.47
2023-02-19T09:27:39.732Z,85.88
2023-02-19T09:30:06.747Z,84.13
2023-02-19T09:32:33.642Z,84.37
2023-02-19T09:35:00.112Z,83.89
2023-02-19T09:37:27.833Z,84.43
2023-02-19T09:39:55.205Z,84.33
2023-02-19T09:42:29.817Z,83.87
2023-02-19T09:44:59.237Z,84.57
2023-02-19T09:47:29.299Z,84.95
2023-02-19T09:50:16.404Z,84.25
2023-02-19T09:52:51.632Z,84.63
2023-02-19T09:55:31.094Z,85.06
2023-02-19T09:58:00.331Z,84.60
2023-02-19T10:00:31.020Z,84.48
2023-02-19T10:03:33.604Z,84.37
2023-02-19T10:06:05.995Z,83.97
2023-02-19T10:08:34.544Z,83.77
2023-02-19T10:11:04.253Z,84.68
2023-02-19T10:13:45.537Z,84.11
2023-02-19T10:16:17.420Z,84.18
2023-02-19T10:18:45.672Z,84.09
2023-02-19T10:21:27.233Z,84.03
2023-02-19T10:23:57.166Z,84.11
2023-02-19T10:26:24.076Z,84.00
2023-02-19T10:28:50.639Z,83.62
2023-02-19T10:31:21.246Z,83.03
2023-02-19T10:33:56.538Z,83.85
2023-02-19T10:36:33.106Z,82.93
2023-02-19T10:39:02.919Z,83.33
2023-02-19T10:41:30.723Z,83.98
2023-02-19T10:44:07.736Z,83.01
2023-02-19T10:46:43.985Z,83.67
2023-02-19T10:49:33.875Z,83.61
2023-02-19T10:52:31.162Z,83.82
2023-02-19T10:55:24.474Z,83.72
2023-02-19T10:57:50.882Z,84.86
2023-02-19T11:00:30.695Z,84.28
2023-02-19T11:03:15.163Z,84.77
2023-02-19T11:05:52.884Z,85.41
2023-02-19T11:08:24.085Z,84.13
2023-02-19T11:10:50.872Z,83.00
2023-02-19T11:13:27.024Z,84.28
2023-02-19T11:15:55.558Z,83.89
2023-02-19T11:18:31.566Z,85.47
2023-02-19T11:21:01.652Z,85.27
2023-02-19T11:23:44.278Z,85.06
2023-02-19T11:26:21.192Z,84.35
2023-02-19T11:28:56.618Z,83.25
2023-02-19T11:31:27.626Z,83.20
2023-02-19T11:34:03.133Z,83.23
2023-02-19T11:36:35.135Z,81.46
2023-02-19T11:39:19.569Z,82.35
2023-02-19T11:42:19.308Z,82.26
2023-02-19T11:45:04.666Z,82.17
2023-02-19T11:47:49.578Z,81.31
2023-02-19T11:50:29.093Z,80.46
2023-02-19T11:53:21.109Z,82.35
2023-02-19T11:56:08.702Z,82.20
2023-02-19T11:58:35.077Z,82.86
2023-02-19T12:01:14.992Z,82.82
2023-02-19T12:04:19.215Z,81.07
2023-02-19T12:07:23.379Z,81.00
2023-02-19T12:10:15.391Z,82.21
2023-02-19T12:13:23.479Z,82.32
2023-02-19T12:16:18.936Z,81.95
2023-02-19T12:19:00.535Z,82.21
2023-02-19T12:21:51.430Z,81.28
2023-02-19T12:24:17.803Z,81.72
2023-02-19T12:27:13.822Z,80.24
2023-02-19T12:30:09.256Z,80.36
2023-02-19T12:32:44.727Z,81.09
2023-02-19T12:35:27.577Z,80.25
2023-02-19T12:38:05.914Z,80.24
2023-02-19T12:40:45.308Z,80.45
2023-02-19T12:43:20.035Z,80.67
2023-02-19T12:46:00.750Z,80.78
2023-02-19T12:48:37.104Z,81.06
2023-02-19T12:51:16.561Z,81.40
2023-02-19T12:53:53.508Z,81.12
2023-02-19T12:56:35.336Z,80.49
2023-02-19T12:59:18.371Z,80.75
2023-02-19T13:01:59.933Z,79.91
2023-02-19T13:05:05.463Z,80.60
2023-02-19T13:07:56.880Z,80.76
2023-02-19T13:10:30.772Z,80.51
2023-02-19T13:13:00.349Z,80.68
2023-02-19T13:15:42.461Z,80.76
2023-02-19T13:18:20.311Z,81.76
2023-02-19T13:20:48.801Z,81.48
2023-02-19T13:23:50.292Z,81.38
2023-02-19T13:26:22.296Z,81.61
2023-02-19T13:28:53.649Z,80.79
2023-02-19T13:32:01.453Z,84.82
2023-02-19T13:34:59.071Z,82.53
2023-02-19T13:37:26.131Z,82.07
2023-02-19T13:39:55.289Z,85.65
2023-02-19T13:42:32.850Z,81.42
2023-02-19T13:45:01.700Z,82.46
2023-02-19T13:47:59.404Z,81.13
2023-02-19T13:50:29.225Z,82.05
2023-02-19T13:52:57.830Z,82.14
2023-02-19T13:55:47.056Z,81.59
2023-02-19T13:58:36.204Z,82.23
2023-02-19T14:01:08.170Z,82.14
2023-02-19T14:03:34.491Z,81.81
2023-02-19T14:06:06.315Z,82.33
2023-02-19T14:08:49.324Z,81.73
2023-02-19T14:11:16.575Z,81.72
2023-02-19T14:13:52.149Z,82.07
2023-02-19T14:16:37.877Z,81.52
2023-02-19T14:19:13.919Z,81.80
2023-02-19T14:21:41.155Z,81.44
2023-02-19T14:24:16.089Z,81.59
2023-02-19T14:26:42.769Z,81.68
2023-02-19T14:29:13.591Z,81.20
2023-02-19T14:31:40.396Z,81.23
2023-02-19T14:34:22.656Z,80.75
2023-02-19T14:36:54.346Z,80.50
2023-02-19T14:39:31.065Z,80.80
2023-02-19T14:42:01.534Z,80.65
2023-02-19T14:44:40.677Z,80.76
2023-02-19T14:47:13.309Z,80.92
2023-02-19T14:49:51.786Z,80.63
2023-02-19T14:52:36.642Z,80.53
2023-02-19T14:55:12.045Z,80.72
2023-02-19T14:57:41.531Z,80.90
2023-02-19T15:00:26.342Z,80.35
2023-02-19T15:02:57.649Z,80.36
2023-02-19T15:05:37.456Z,80.90
2023-02-19T15:08:11.358Z,80.99
2023-02-19T15:10:39.033Z,80.70
2023-02-19T15:13:12.020Z,81.12
2023-02-19T15:15:43.126Z,81.35
2023-02-19T15:18:25.624Z,81.18
2023-02-19T15:21:00.416Z,81.17
2023-02-19T15:23:30.372Z,81.49
2023-02-19T15:25:57.411Z,81.95
2023-02-19T15:28:23.762Z,81.83
2023-02-19T15:30:59.251Z,82.39
2023-02-19T15:33:27.696Z,81.55
2023-02-19T15:35:59.568Z,80.84
2023-02-19T15:38:26.515Z,80.84
2023-02-19T15:40:55.887Z,79.44
2023-02-19T15:43:31.274Z,79.62
2023-02-19T15:46:03.907Z,79.70
2023-02-19T15:48:42.590Z,79.24
2023-02-19T15:51:17.383Z,78.67
2023-02-19T15:53:51.787Z,78.87
2023-02-19T15:56:28.127Z,78.01
2023-02-19T15:59:02.374Z,77.37
2023-02-19T16:01:31.163Z,77.55
2023-02-19T16:03:58.416Z,77.25
2023-02-19T16:06:26.441Z,76.56
2023-02-19T16:08:52.821Z,76.95
2023-02-19T16:11:22.123Z,76.32
2023-02-19T16:13:50.068Z,76.02
2023-02-19T16:16:34.567Z,77.01
2023-02-19T16:19:01.310Z,76.38
2023-02-19T16:21:28.143Z,76.40
2023-02-19T16:24:15.583Z,76.52
2023-02-19T16:26:43.639Z,76.87
2023-02-19T16:29:40.085Z,77.01
2023-02-19T16:32:15.523Z,76.76
2023-02-19T16:34:47.209Z,76.56
2023-02-19T16:37:32.799Z,76.76
2023-02-19T16:40:08.285Z,76.74
2023-02-19T16:42:36.088Z,76.88
2023-02-19T16:45:02.699Z,76.88
2023-02-19T16:47:32.111Z,78.66
2023-02-19T16:50:01.534Z,77.28
2023-02-19T16:52:28.875Z,77.15
2023-02-19T16:54:55.330Z,76.82
2023-02-19T16:57:21.796Z,76.47
2023-02-19T16:59:48.353Z,77.38
2023-02-19T17:02:19.405Z,76.70
2023-02-19T17:04:48.062Z,76.59
2023-02-19T17:07:17.002Z,76.91
2023-02-19T17:09:43.506Z,76.38
2023-02-19T17:12:15.487Z,77.25
2023-02-19T17:14:42.027Z,76.83
2023-02-19T17:17:08.504Z,76.82
2023-02-19T17:19:35.004Z,76.67
2023-02-19T17:22:01.431Z,76.65
2023-02-19T17:24:27.859Z,76.33
2023-02-19T17:26:54.417Z,76.47
2023-02-19T17:29:20.914Z,76.83
2023-02-19T17:31:47.413Z,77.07
2023-02-19T17:34:13.830Z,76.44
2023-02-19T17:36:42.839Z,76.72
2023-02-19T17:39:15.117Z,76.81
2023-02-19T17:41:41.837Z,77.13
2023-02-19T17:44:08.246Z,76.77
2023-02-19T17:46:34.681Z,76.86
2023-02-19T17:49:01.166Z,77.27
2023-02-19T17:51:28.137Z,76.55
2023-02-19T17:53:54.599Z,76.74
2023-02-19T17:56:25.419Z,76.88
2023-02-19T17:58:53.126Z,76.18
2023-02-19T18:01:19.683Z,76.69
2023-02-19T18:03:46.362Z,76.27
2023-02-19T18:06:12.845Z,76.43
2023-02-19T18:08:39.291Z,76.32
2023-02-19T18:11:07.505Z,76.38
2023-02-19T18:13:33.905Z,76.17
2023-02-19T18:16:00.318Z,76.81
2023-02-19T18:18:26.743Z,76.22
2023-02-19T18:20:53.194Z,75.87
2023-02-19T18:23:20.647Z,75.56
2023-02-19T18:25:47.363Z,76.42
2023-02-19T18:28:14.872Z,76.19
2023-02-19T18:30:41.410Z,76.39
2023-02-19T18:33:10.723Z,76.10
2023-02-19T18:35:37.976Z,76.21
2023-02-19T18:38:05.570Z,76.26
2023-02-19T18:40:32.008Z,75.81
2023-02-19T18:42:58.762Z,76.32
2023-02-19T18:45:25.313Z,76.22
2023-02-19T18:47:51.791Z,76.38
2023-02-19T18:50:19.751Z,76.38
2023-02-19T18:52:46.538Z,76.28
2023-02-19T18:55:13.126Z,76.84
2023-02-19T18:57:39.609Z,75.83
2023-02-19T19:00:06.967Z,76.58
2023-02-19T19:02:47.161Z,76.73
2023-02-19T19:05:18.212Z,76.25
2023-02-19T19:07:44.674Z,76.82
2023-02-19T19:10:11.153Z,76.36
2023-02-19T19:12:37.507Z,76.96
2023-02-19T19:15:04.282Z,77.05
2023-02-19T19:17:30.680Z,76.54
2023-02-19T19:19:57.090Z,76.94
2023-02-19T19:22:25.018Z,76.77
2023-02-19T19:24:51.466Z,77.18
2023-02-19T19:27:20.145Z,77.24
2023-02-19T19:29:47.310Z,77.37
2023-02-19T19:32:14.156Z,77.40
2023-02-19T19:34:40.766Z,78.09
2023-02-19T19:37:07.230Z,78.04
2023-02-19T19:39:33.584Z,77.41
2023-02-19T19:42:00.007Z,77.72
2023-02-19T19:44:26.637Z,77.54
2023-02-19T19:46:55.280Z,77.77
2023-02-19T19:49:23.110Z,77.63
2023-02-19T19:51:49.569Z,77.76
2023-02-19T19:54:16.340Z,78.51
2023-02-19T19:56:45.350Z,78.19
2023-02-19T19:59:16.476Z,77.74
2023-02-19T20:01:53.917Z,78.40
2023-02-19T20:04:22.252Z,78.19
2023-02-19T20:06:49.078Z,78.71
2023-02-19T20:09:16.954Z,78.23
2023-02-19T20:11:53.797Z,77.81
2023-02-19T20:14:22.680Z,78.83
2023-02-19T20:16:50.518Z,78.67
2023-02-19T20:19:18.408Z,78.41
2023-02-19T20:21:46.393Z,78.40
2023-02-19T20:24:18.185Z,78.69
2023-02-19T20:26:44.920Z,78.38
2023-02-19T20:29:11.978Z,78.65
2023-02-19T20:31:39.198Z,78.95
2023-02-19T20:34:06.022Z,78.32
2023-02-19T20:36:32.680Z,78.51
2023-02-19T20:38:59.141Z,78.49
2023-02-19T20:41:25.681Z,78.29
2023-02-19T20:43:52.205Z,78.43
2023-02-19T20:46:18.632Z,78.69
2023-02-19T20:48:45.040Z,79.10
2023-02-19T20:51:11.461Z,78.83
2023-02-19T20:53:38.631Z,78.88
2023-02-19T20:56:05.992Z,78.75
2023-02-19T20:58:32.364Z,79.37
2023-02-19T21:00:58.771Z,79.04
2023-02-19T21:03:25.226Z,78.97
2023-02-19T21:05:51.638Z,79.44
2023-02-19T21:08:18.025Z,79.32
2023-02-19T21:10:46.101Z,79.84
2023-02-19T21:13:13.053Z,79.80
2023-02-19T21:15:39.709Z,79.05
2023-02-19T21:18:06.184Z,79.84
2023-02-19T21:20:32.975Z,79.34
2023-02-19T21:22:59.578Z,80.24
2023-02-19T21:25:25.993Z,79.15
2023-02-19T21:27:52.578Z,79.79
2023-02-19T21:30:19.195Z,79.62
2023-02-19T21:32:45.603Z,79.82
2023-02-19T21:35:12.053Z,79.85
2023-02-19T21:37:41.743Z,79.93
2023-02-19T21:40:08.952Z,79.74
2023-02-19T21:42:35.444Z,79.81
2023-02-19T21:45:01.856Z,79.89
2023-02-19T21:47:28.842Z,80.32
2023-02-19T21:49:55.198Z,80.61
2023-02-19T21:52:23.327Z,80.04
2023-02-19T21:54:49.752Z,80.37
2023-02-19T21:57:16.183Z,80.84
2023-02-19T21:59:42.553Z,80.58
2023-02-19T22:02:09.482Z,80.44
2023-02-19T22:04:35.885Z,80.36
2023-02-19T22:07:02.349Z,80.99
2023-02-19T22:09:28.811Z,80.61
2023-02-19T22:11:55.264Z,80.93
2023-02-19T22:14:21.729Z,80.28
2023-02-19T22:16:48.202Z,80.64
2023-02-19T22:19:14.646Z,80.01
2023-02-19T22:21:43.823Z,80.25
2023-02-19T22:24:18.457Z,80.62
2023-02-19T22:26:45.681Z,79.99
2023-02-19T22:29:14.592Z,80.44
2023-02-19T22:31:41.691Z,80.41
2023-02-19T22:34:09.088Z,80.02
2023-02-19T22:36:37.226Z,80.40
2023-02-19T22:39:05.750Z,80.55
2023-02-19T22:41:32.354Z,79.88
2023-02-19T22:43:59.863Z,80.01
2023-02-19T22:46:29.327Z,80.32
2023-02-19T22:48:56.488Z,80.13
2023-02-19T22:51:24.244Z,80.07
2023-02-19T22:53:55.494Z,80.39
2023-02-19T22:56:24.522Z,80.03
2023-02-19T22:58:51.402Z,80.27
2023-02-19T23:01:18.297Z,80.24
2023-02-19T23:03:58.872Z,80.31
2023-02-19T23:06:29.924Z,80.42
2023-02-19T23:08:58.452Z,80.21
2023-02-19T23:11:31.079Z,80.18
2023-02-19T23:13:58.325Z,79.87
2023-02-19T23:16:24.956Z,80.61
2023-02-19T23:18:51.656Z,80.12
2023-02-19T23:21:19.375Z,80.18
2023-02-19T23:23:46.446Z,80.38
2023-02-19T23:26:14.891Z,79.89
2023-02-19T23:28:43.143Z,80.24
2023-02-19T23:31:10.227Z,80.67
2023-02-19T23:33:36.800Z,80.83
2023-02-19T23:36:04.254Z,80.38
2023-02-19T23:38:30.693Z,80.38
2023-02-19T23:40:57.120Z,80.17
2023-02-19T23:43:23.524Z,80.89
2023-02-19T23:45:49.946Z,80.62
2023-02-19T23:48:16.910Z,80.68
2023-02-19T23:50:43.488Z,80.66
2023-02-19T23:53:09.972Z,80.32
2023-02-19T23:55:36.488Z,80.34
2023-02-19T23:58:03.107Z,80.62
